Time;durP1;ratioP1;P1;durP2;ratioP2;P2;SDS_P1;SDS_P2;PMS_P1;PMS_P2;Temp;Humidity;BMP_temperature;BMP_pressure;BME280_temperature;BME280_humidity;BME280_pressure;Samples;Min_cycle;Max_cycle;Signal;HPM_P1;HPM_P2
2022/08/02 00:00:14;;;;;;;;;;;26.30;73.70;26.10;99691.00;;;;340676;28;91875;-86
2022/08/02 00:00:26;;;;;;;;;;;26.30;73.60;26.20;99693.00;;;;342331;28;82531;-85
2022/08/02 00:00:38;;;;;;;;;;;26.30;73.50;26.10;99691.00;;;;343004;28;88682;-86
2022/08/02 00:00:50;;;;;;;;;;;26.30;73.70;26.10;99695.00;;;;343361;28;82288;-86
2022/08/02 00:01:06;;;;;;;;;;;26.30;73.70;26.00;99692.00;;;;342967;28;89217;-86
2022/08/02 00:01:18;;;;;;;;;;;26.30;73.80;26.10;99691.00;;;;343446;28;82373;-86
2022/08/02 00:01:30;;;;;;;;;;;26.20;73.70;26.10;99690.00;;;;341455;28;88434;-86
2022/08/02 00:01:42;;;;;;;;;;;26.20;73.70;26.10;99690.00;;;;342025;28;83325;-86
2022/08/02 00:01:54;;;;;;;;;;;26.20;73.60;26.10;99691.00;;;;342958;28;89190;-85
2022/08/02 00:02:06;;;;;;;;;;;26.30;73.90;26.00;99691.00;;;;342932;28;83265;-86
2022/08/02 00:02:19;;;;;;;;;;;26.20;73.80;25.90;99689.00;;;;344240;28;92368;-86
2022/08/02 00:02:30;;;;;;;;;;;26.20;73.80;26.00;99690.00;;;;343249;28;83410;-86
2022/08/02 00:02:43;;;;;;;;;;;26.20;73.70;26.10;99690.00;;;;341677;28;88450;-86
2022/08/02 00:02:54;;;;;;;;;;;26.20;73.70;25.90;99695.00;;;;340516;28;83243;-85
2022/08/02 00:03:06;;;;;;;;;;;26.20;74.00;25.90;99689.00;;;;339828;28;90211;-86
2022/08/02 00:03:18;;;;;;;;;;;26.20;74.00;25.90;99695.00;;;;342021;28;83352;-85
2022/08/02 00:03:30;;;;;;;;;;;26.20;74.00;26.00;99698.00;;;;341362;28;92201;-86
2022/08/02 00:03:43;;;;;;;;;;;26.20;74.00;26.00;99691.00;;;;341940;28;82469;-86
2022/08/02 00:03:55;;;;;;;;;;;26.20;74.10;26.00;99689.00;;;;342907;28;91014;-85
2022/08/02 00:04:07;;;;;;;;;;;26.20;74.00;26.00;99692.00;;;;341946;28;83515;-86
2022/08/02 00:04:18;;;;;;;;;;;26.20;74.00;26.00;99699.00;;;;341441;28;89418;-86
2022/08/02 00:04:30;;;;;;;;;;;26.20;74.00;26.00;99694.00;;;;341941;28;83230;-85
2022/08/02 00:04:42;;;;;;;;;;;26.20;73.90;26.00;99691.00;;;;341665;28;89071;-86
2022/08/02 00:04:54;;;;;;;;;;;26.20;74.10;26.00;99694.00;;;;341920;28;83304;-86
2022/08/02 00:05:06;;;;;;;;;;;26.20;74.00;26.00;99694.00;;;;341648;28;89473;-86
2022/08/02 00:05:18;;;;;;;;;;;26.20;74.10;26.00;99693.00;;;;340777;28;83192;-86
2022/08/02 00:05:30;;;;;;;;;;;26.20;74.20;26.00;99699.00;;;;340129;28;89977;-85
2022/08/02 00:05:42;;;;;;;;;;;26.20;74.20;26.00;99694.00;;;;340479;28;82326;-86
2022/08/02 00:06:03;;;;;;;;;;;26.20;74.10;26.00;99698.00;;;;341473;28;92237;-86
2022/08/02 00:06:15;;;;;;;;;;;26.20;74.10;26.00;99688.00;;;;342050;28;82412;-86
2022/08/02 00:06:27;;;;;;;;;;;26.20;74.10;26.00;99695.00;;;;341396;28;91972;-86
2022/08/02 00:06:38;;;;;;;;;;;26.20;74.30;25.90;99694.00;;;;342025;28;83403;-85
2022/08/02 00:06:50;;;;;;;;;;;26.20;74.30;25.90;99693.00;;;;342958;28;88125;-86
2022/08/02 00:07:02;;;;;;;;;;;26.10;74.20;25.90;99688.00;;;;342082;28;83390;-86
2022/08/02 00:07:14;;;;;;;;;;;26.20;74.20;25.90;99692.00;;;;342081;28;89218;-86
2022/08/02 00:07:26;;;;;;;;;;;26.10;74.20;26.00;99691.00;;;;342903;28;83425;-86
2022/08/02 00:07:38;;;;;;;;;;;26.10;74.10;26.00;99688.00;;;;342992;28;88990;-86
2022/08/02 00:07:52;;;;;;;;;;;26.10;74.20;26.00;99695.00;;;;341690;28;83502;-86
2022/08/02 00:08:03;;;;;;;;;;;26.10;74.30;25.90;99695.00;;;;341567;28;88851;-86
2022/08/02 00:08:15;;;;;;;;;;;26.10;74.30;26.00;99690.00;;;;341843;28;83362;-86
2022/08/02 00:08:27;;;;;;;;;;;26.10;74.20;26.00;99697.00;;;;340683;28;92039;-86
2022/08/02 00:08:39;;;;;;;;;;;26.10;74.30;26.00;99698.00;;;;341878;28;83543;-86
2022/08/02 00:08:52;;;;;;;;;;;26.10;74.20;26.00;99694.00;;;;341613;28;87922;-86
2022/08/02 00:09:04;;;;;;;;;;;26.10;74.30;26.00;99696.00;;;;341981;28;83404;-86
2022/08/02 00:09:16;;;;;;;;;;;26.10;74.40;26.00;99688.00;;;;342686;28;89253;-86
2022/08/02 00:09:31;;;;;;;;;;;26.10;74.30;25.90;99692.00;;;;343209;28;83607;-86
2022/08/02 00:09:43;;;;;;;;;;;26.10;74.40;25.90;99689.00;;;;341526;28;92261;-86
2022/08/02 00:09:55;;;;;;;;;;;26.10;74.50;25.90;99689.00;;;;342076;28;83347;-86
2022/08/02 00:10:08;;;;;;;;;;;26.10;74.60;25.90;99694.00;;;;341422;28;92321;-86
2022/08/02 00:10:19;;;;;;;;;;;26.10;74.60;25.90;99698.00;;;;341942;28;83406;-85
2022/08/02 00:10:32;;;;;;;;;;;26.10;74.40;26.00;99698.00;;;;341172;28;92227;-86
2022/08/02 00:10:43;;;;;;;;;;;26.10;74.40;25.90;99690.00;;;;343322;28;83348;-86
2022/08/02 00:10:55;;;;;;;;;;;26.10;74.40;25.90;99689.00;;;;342948;28;91520;-86
2022/08/02 00:11:07;;;;;;;;;;;26.10;74.50;25.90;99693.00;;;;344706;28;82418;-86
2022/08/02 00:11:19;;;;;;;;;;;26.10;74.50;25.90;99700.00;;;;345765;28;89308;-85
2022/08/02 00:11:30;;;;;;;;;;;26.10;74.40;26.00;99696.00;;;;344622;28;83389;-86
2022/08/02 00:11:42;;;;;;;;;;;26.10;74.40;26.00;99692.00;;;;341560;28;90236;-86
2022/08/02 00:11:54;;;;;;;;;;;26.10;74.40;26.00;99688.00;;;;343420;28;83360;-86
2022/08/02 00:12:06;;;;;;;;;;;26.10;74.40;25.90;99692.00;;;;341549;28;89106;-86
2022/08/02 00:12:18;;;;;;;;;;;26.10;74.40;26.00;99698.00;;;;343386;28;83181;-86
2022/08/02 00:12:30;;;;;;;;;;;26.10;74.40;25.80;99690.00;;;;342834;28;90453;-86
2022/08/02 00:12:42;;;;;;;;;;;26.10;74.50;25.70;99690.00;;;;343247;28;83250;-86
2022/08/02 00:12:53;;;;;;;;;;;26.00;74.50;25.70;99700.00;;;;344079;28;89963;-87
2022/08/02 00:13:05;;;;;;;;;;;26.00;74.40;25.80;99686.00;;;;344699;28;82627;-87
2022/08/02 00:13:17;;;;;;;;;;;26.00;74.50;25.80;99688.00;;;;343010;28;88616;-86
2022/08/02 00:13:29;;;;;;;;;;;26.00;74.50;25.80;99687.00;;;;343137;28;82511;-86
2022/08/02 00:13:41;;;;;;;;;;;26.00;74.60;25.80;99689.00;;;;344104;28;91985;-87
2022/08/02 00:13:52;;;;;;;;;;;26.00;74.60;25.90;99695.00;;;;344780;28;83315;-86
2022/08/02 00:14:04;;;;;;;;;;;26.00;74.60;25.90;99697.00;;;;342919;28;89030;-86
2022/08/02 00:14:16;;;;;;;;;;;26.00;74.50;25.90;99694.00;;;;343418;28;83080;-86
2022/08/02 00:14:28;;;;;;;;;;;26.00;74.50;25.90;99692.00;;;;342813;28;89299;-86
2022/08/02 00:14:39;;;;;;;;;;;26.00;74.60;25.90;99692.00;;;;344715;28;82575;-86
2022/08/02 00:14:51;;;;;;;;;;;26.10;74.90;25.90;99697.00;;;;342968;28;88678;-86
2022/08/02 00:15:07;;;;;;;;;;;26.00;74.60;25.90;99696.00;;;;344279;28;83411;-86
2022/08/02 00:15:19;;;;;;;;;;;26.00;74.70;25.90;99688.00;;;;343026;28;89231;-86
2022/08/02 00:15:31;;;;;;;;;;;26.00;74.80;25.90;99695.00;;;;344643;28;83630;-86
2022/08/02 00:15:42;;;;;;;;;;;26.00;74.70;25.80;99691.00;;;;342964;28;89087;-86
2022/08/02 00:15:54;;;;;;;;;;;26.00;74.70;25.90;99689.00;;;;342088;28;83096;-86
2022/08/02 00:16:06;;;;;;;;;;;26.00;74.80;25.90;99691.00;;;;341420;28;91980;-86
2022/08/02 00:16:18;;;;;;;;;;;26.00;74.80;25.90;99696.00;;;;341964;28;83442;-86
2022/08/02 00:16:29;;;;;;;;;;;26.00;74.70;25.90;99697.00;;;;341424;28;92226;-86
2022/08/02 00:16:49;;;;;;;;;;;26.00;74.70;25.90;99699.00;;;;340519;28;83586;-86
2022/08/02 00:17:00;;;;;;;;;;;26.00;74.80;25.90;99692.00;;;;340279;28;91598;-86
2022/08/02 00:17:12;;;;;;;;;;;26.00;74.90;25.90;99695.00;;;;344713;28;83297;-86
2022/08/02 00:17:24;;;;;;;;;;;26.00;74.80;25.90;99691.00;;;;345121;28;89315;-86
2022/08/02 00:17:36;;;;;;;;;;;26.00;74.80;25.90;99688.00;;;;344708;28;83372;-86
2022/08/02 00:17:47;;;;;;;;;;;26.00;74.90;25.90;99693.00;;;;343834;28;91678;-86
2022/08/02 00:17:59;;;;;;;;;;;26.00;74.80;25.90;99684.00;;;;341966;28;83423;-87
2022/08/02 00:18:11;;;;;;;;;;;26.00;74.80;25.80;99688.00;;;;341509;28;89457;-86
2022/08/02 00:18:23;;;;;;;;;;;26.00;74.80;25.90;99684.00;;;;341929;28;82334;-86
2022/08/02 00:18:34;;;;;;;;;;;26.00;74.80;25.80;99687.00;;;;340228;28;88671;-87
2022/08/02 00:18:46;;;;;;;;;;;26.00;74.90;25.80;99689.00;;;;343344;28;83242;-87
2022/08/02 00:18:58;;;;;;;;;;;26.00;74.80;25.90;99691.00;;;;342949;28;90047;-86
2022/08/02 00:19:10;;;;;;;;;;;26.00;74.80;25.80;99690.00;;;;343442;28;83220;-86
2022/08/02 00:19:21;;;;;;;;;;;26.00;74.90;25.80;99693.00;;;;341541;28;90338;-86
2022/08/02 00:19:33;;;;;;;;;;;26.00;74.90;25.80;99696.00;;;;341932;28;83504;-86
2022/08/02 00:19:45;;;;;;;;;;;26.00;75.10;25.80;99689.00;;;;340176;28;91138;-86
2022/08/02 00:19:57;;;;;;;;;;;26.00;74.90;25.80;99693.00;;;;340685;28;83223;-86
2022/08/02 00:20:09;;;;;;;;;;;26.00;75.00;25.80;99686.00;;;;340072;28;92223;-87
2022/08/02 00:20:21;;;;;;;;;;;26.00;75.00;25.80;99690.00;;;;340653;28;83234;-86
2022/08/02 00:20:32;;;;;;;;;;;26.00;74.90;25.80;99685.00;;;;341808;28;88778;-85
2022/08/02 00:20:44;;;;;;;;;;;26.00;74.90;25.80;99685.00;;;;342256;28;82548;-86
2022/08/02 00:20:56;;;;;;;;;;;26.00;74.90;25.80;99695.00;;;;341591;28;88045;-86
2022/08/02 00:21:08;;;;;;;;;;;26.00;74.90;25.80;99686.00;;;;340748;28;83866;-86
2022/08/02 00:21:22;;;;;;;;;;;26.00;75.00;25.80;99692.00;;;;341553;28;91108;-86
2022/08/02 00:21:34;;;;;;;;;;;26.00;75.10;25.80;99687.00;;;;341341;28;82499;-87
2022/08/02 00:21:45;;;;;;;;;;;26.00;75.00;25.80;99689.00;;;;340137;28;88327;-86
2022/08/02 00:21:57;;;;;;;;;;;26.00;74.90;25.80;99689.00;;;;343023;28;83431;-86
2022/08/02 00:22:09;;;;;;;;;;;26.00;75.10;25.70;99692.00;;;;342871;28;88897;-86
2022/08/02 00:22:21;;;;;;;;;;;25.90;75.10;25.80;99691.00;;;;341907;28;83411;-87
2022/08/02 00:22:33;;;;;;;;;;;25.90;75.00;25.80;99690.00;;;;341601;28;89225;-86
2022/08/02 00:22:44;;;;;;;;;;;25.90;74.90;25.80;99688.00;;;;340574;28;82840;-86
2022/08/02 00:22:56;;;;;;;;;;;25.90;74.90;25.80;99692.00;;;;340264;28;91280;-87
2022/08/02 00:23:08;;;;;;;;;;;26.00;74.90;25.80;99684.00;;;;340574;28;83303;-87
2022/08/02 00:23:19;;;;;;;;;;;25.90;75.00;25.70;99689.00;;;;340208;28;89134;-86
2022/08/02 00:23:31;;;;;;;;;;;25.90;75.10;25.70;99687.00;;;;341800;28;83526;-86
2022/08/02 00:24:03;;;;;;;;;;;25.90;75.10;25.80;99693.00;;;;341398;28;91620;-86
2022/08/02 00:24:35;;;;;;;;;;;25.90;75.20;25.80;99688.00;;;;342537;28;83458;-86
2022/08/02 00:24:47;;;;;;;;;;;25.90;75.10;25.80;99689.00;;;;342720;28;89295;-86
2022/08/02 00:24:58;;;;;;;;;;;25.90;75.30;25.80;99692.00;;;;340700;28;83335;-86
2022/08/02 00:25:10;;;;;;;;;;;25.90;75.40;25.80;99686.00;;;;341464;28;92094;-87
2022/08/02 00:25:22;;;;;;;;;;;25.90;75.20;25.80;99693.00;;;;343258;28;83386;-86
2022/08/02 00:25:34;;;;;;;;;;;25.90;75.20;25.80;99698.00;;;;342922;28;88025;-86
2022/08/02 00:26:04;;;;;;;;;;;25.90;75.20;25.70;99692.00;;;;341932;28;82470;-86
2022/08/02 00:26:16;;;;;;;;;;;25.90;75.20;25.70;99688.00;;;;341489;28;92385;-86
2022/08/02 00:26:28;;;;;;;;;;;25.90;75.20;25.70;99688.00;;;;341847;28;83217;-86
2022/08/02 00:26:40;;;;;;;;;;;25.90;75.30;25.70;99689.00;;;;342893;28;92025;-86
2022/08/02 00:26:51;;;;;;;;;;;25.90;75.40;25.70;99690.00;;;;341901;28;83467;-86
2022/08/02 00:27:03;;;;;;;;;;;25.90;75.40;25.80;99684.00;;;;341050;28;92714;-86
2022/08/02 00:27:20;;;;;;;;;;;25.90;75.30;25.80;99689.00;;;;340997;28;85064;-86
2022/08/02 00:27:31;;;;;;;;;;;25.90;75.30;25.80;99690.00;;;;342807;28;89032;-86
2022/08/02 00:27:43;;;;;;;;;;;25.90;75.30;25.70;99691.00;;;;343410;28;83369;-86
2022/08/02 00:27:55;;;;;;;;;;;25.90;75.30;25.70;99687.00;;;;342736;28;91811;-86
2022/08/02 00:28:07;;;;;;;;;;;25.90;75.20;25.70;99691.00;;;;343233;28;83321;-86
2022/08/02 00:28:18;;;;;;;;;;;25.90;75.30;25.70;99683.00;;;;342928;28;90224;-86
2022/08/02 00:28:38;;;;;;;;;;;25.90;75.30;25.70;99693.00;;;;343458;28;83318;-86
2022/08/02 00:28:50;;;;;;;;;;;25.90;75.40;25.70;99689.00;;;;342891;28;89132;-86
2022/08/02 00:29:02;;;;;;;;;;;25.90;75.40;25.70;99689.00;;;;343386;28;83498;-86
2022/08/02 00:29:14;;;;;;;;;;;25.90;75.30;25.70;99682.00;;;;344381;28;89099;-86
2022/08/02 00:29:25;;;;;;;;;;;25.80;75.30;25.70;99687.00;;;;343306;28;83248;-86
2022/08/02 00:29:38;;;;;;;;;;;25.90;75.40;25.70;99688.00;;;;344273;28;89162;-86
2022/08/02 00:30:04;;;;;;;;;;;25.80;75.40;25.70;99696.00;;;;343346;28;83496;-86
2022/08/02 00:30:15;;;;;;;;;;;25.80;76.00;25.70;99687.00;;;;341624;28;88211;-86
2022/08/02 00:30:27;;;;;;;;;;;25.80;75.40;25.70;99692.00;;;;341533;28;83338;-86
2022/08/02 00:30:39;;;;;;;;;;;25.80;75.30;25.70;99689.00;;;;342337;28;92632;-85
2022/08/02 00:30:51;;;;;;;;;;;25.80;75.40;25.70;99693.00;;;;343835;28;83506;-86
2022/08/02 00:31:02;;;;;;;;;;;25.80;75.50;25.60;99690.00;;;;344015;28;92100;-86
2022/08/02 00:31:14;;;;;;;;;;;25.80;75.50;25.70;99692.00;;;;343248;28;83230;-86
2022/08/02 00:31:26;;;;;;;;;;;25.80;75.50;25.60;99686.00;;;;341288;28;89583;-86
2022/08/02 00:31:38;;;;;;;;;;;25.80;75.60;25.70;99685.00;;;;343326;28;83363;-86
2022/08/02 00:31:50;;;;;;;;;;;25.80;75.50;25.70;99691.00;;;;341563;28;86919;-86
2022/08/02 00:32:02;;;;;;;;;;;25.80;75.50;25.60;99690.00;;;;342022;28;83441;-86
2022/08/02 00:32:13;;;;;;;;;;;25.80;75.60;25.60;99690.00;;;;341508;28;88687;-86
2022/08/02 00:32:25;;;;;;;;;;;25.80;75.70;25.60;99696.00;;;;340614;28;82253;-86
2022/08/02 00:32:37;;;;;;;;;;;25.80;75.70;25.70;99696.00;;;;340153;28;91246;-86
2022/08/02 00:32:49;;;;;;;;;;;25.80;75.60;25.60;99696.00;;;;341887;28;83256;-86
2022/08/02 00:33:01;;;;;;;;;;;25.80;75.80;25.60;99688.00;;;;344219;28;92212;-86
2022/08/02 00:33:13;;;;;;;;;;;25.80;75.80;25.70;99686.00;;;;344646;28;83439;-86
2022/08/02 00:33:25;;;;;;;;;;;25.80;75.70;25.60;99691.00;;;;341491;28;91218;-86
2022/08/02 00:33:57;;;;;;;;;;;25.80;75.80;25.70;99690.00;;;;343312;28;83413;-86
2022/08/02 00:34:28;;;;;;;;;;;25.80;75.80;25.60;99692.00;;;;341167;28;91515;-86
2022/08/02 00:34:46;;;;;;;;;;;25.80;75.80;25.60;99699.00;;;;340529;28;83320;-86
2022/08/02 00:34:58;;;;;;;;;;;25.70;75.70;25.60;99686.00;;;;341599;28;90213;-86
2022/08/02 00:35:10;;;;;;;;;;;25.70;75.70;25.60;99690.00;;;;341932;28;83435;-86
2022/08/02 00:35:22;;;;;;;;;;;25.70;75.70;25.60;99690.00;;;;340081;28;92097;-86
2022/08/02 00:35:34;;;;;;;;;;;25.70;75.70;25.50;99692.00;;;;341788;28;83323;-86
2022/08/02 00:35:51;;;;;;;;;;;25.70;75.80;25.50;99692.00;;;;341464;28;92502;-86
2022/08/02 00:36:03;;;;;;;;;;;25.70;75.70;25.50;99695.00;;;;340627;28;83449;-86
2022/08/02 00:36:15;;;;;;;;;;;25.70;75.80;25.40;99689.00;;;;342932;28;88813;-86
2022/08/02 00:36:27;;;;;;;;;;;25.70;75.80;25.50;99691.00;;;;344471;28;82438;-85
2022/08/02 00:36:38;;;;;;;;;;;25.60;75.80;25.60;99689.00;;;;343911;28;91911;-87
2022/08/02 00:36:50;;;;;;;;;;;25.70;75.80;25.60;99688.00;;;;341768;28;83452;-87
2022/08/02 00:37:02;;;;;;;;;;;25.70;75.70;25.60;99691.00;;;;341700;28;88433;-86
2022/08/02 00:37:14;;;;;;;;;;;25.70;75.70;25.60;99693.00;;;;343520;28;84048;-86
2022/08/02 00:37:25;;;;;;;;;;;25.70;75.70;25.70;99687.00;;;;341016;28;92508;-86
2022/08/02 00:37:39;;;;;;;;;;;25.60;75.70;25.50;99687.00;;;;343248;28;83430;-86
2022/08/02 00:37:51;;;;;;;;;;;25.60;75.70;25.60;99691.00;;;;343790;28;91868;-86
2022/08/02 00:38:03;;;;;;;;;;;25.70;75.90;25.50;99694.00;;;;343407;28;83339;-86
2022/08/02 00:38:14;;;;;;;;;;;25.70;76.10;25.50;99687.00;;;;341486;28;92288;-86
2022/08/02 00:38:26;;;;;;;;;;;25.60;75.90;25.40;99687.00;;;;341857;28;83410;-86
2022/08/02 00:38:38;;;;;;;;;;;25.60;76.10;25.50;99688.00;;;;341496;28;90108;-86
2022/08/02 00:38:50;;;;;;;;;;;25.60;75.90;25.50;99685.00;;;;343288;28;83531;-87
2022/08/02 00:39:01;;;;;;;;;;;25.60;76.00;25.50;99687.00;;;;341491;28;91265;-86
2022/08/02 00:39:13;;;;;;;;;;;25.60;76.00;25.60;99690.00;;;;342038;28;82489;-86
2022/08/02 00:39:45;;;;;;;;;;;25.60;76.00;25.50;99698.00;;;;341549;28;90440;-87
2022/08/02 00:39:56;;;;;;;;;;;25.60;76.00;25.40;99695.00;;;;340948;28;83647;-85
2022/08/02 00:40:09;;;;;;;;;;;25.60;76.10;25.50;99690.00;;;;341082;28;89197;-86
2022/08/02 00:40:22;;;;;;;;;;;25.60;76.00;25.50;99687.00;;;;341835;28;83350;-86
2022/08/02 00:40:33;;;;;;;;;;;25.60;76.00;25.60;99687.00;;;;339957;28;89507;-86
2022/08/02 00:40:56;;;;;;;;;;;;;;;;;;;;;
2022/08/02 00:41:15;;;;;;;;;;;25.60;76.10;25.60;99693.00;;;;341572;28;90886;-86
2022/08/02 00:41:27;;;;;;;;;;;25.60;76.10;25.60;99690.00;;;;343147;28;83413;-86
2022/08/02 00:41:48;;;;;;;;;;;25.60;76.10;25.60;99686.00;;;;342915;28;91645;-87
2022/08/02 00:42:01;;;;;;;;;;;25.60;76.00;25.60;99692.00;;;;342048;28;82467;-86
2022/08/02 00:42:13;;;;;;;;;;;25.60;76.10;25.60;99684.00;;;;342890;28;89691;-87
2022/08/02 00:42:25;;;;;;;;;;;25.60;76.00;25.60;99688.00;;;;344689;28;83347;-87
2022/08/02 00:42:38;;;;;;;;;;;25.60;76.00;25.60;99691.00;;;;342734;28;92229;-86
2022/08/02 00:43:00;;;;;;;;;;;25.60;76.10;25.50;99690.00;;;;344340;28;83549;-86
2022/08/02 00:43:11;;;;;;;;;;;25.60;76.20;25.50;99683.00;;;;344291;28;89529;-87
2022/08/02 00:43:23;;;;;;;;;;;25.60;76.20;25.50;99686.00;;;;342008;28;83118;-86
2022/08/02 00:43:35;;;;;;;;;;;25.60;76.10;25.50;99684.00;;;;341451;28;89395;-86
2022/08/02 00:43:47;;;;;;;;;;;25.60;76.10;25.60;99687.00;;;;342054;28;83235;-86
2022/08/02 00:43:59;;;;;;;;;;;25.60;76.60;25.50;99690.00;;;;341498;28;91549;-86
2022/08/02 00:44:11;;;;;;;;;;;25.60;76.20;25.50;99681.00;;;;340605;28;82464;-87
2022/08/02 00:44:23;;;;;;;;;;;25.60;76.20;25.60;99679.00;;;;341432;28;90342;-87
2022/08/02 00:44:35;;;;;;;;;;;25.60;76.20;25.50;99686.00;;;;340627;28;83297;-86
2022/08/02 00:44:46;;;;;;;;;;;25.60;76.20;25.50;99686.00;;;;341576;28;88715;-86
2022/08/02 00:44:58;;;;;;;;;;;25.60;76.20;25.60;99686.00;;;;341472;28;83408;-87
2022/08/02 00:45:10;;;;;;;;;;;25.60;76.20;25.60;99683.00;;;;342786;28;89142;-87
2022/08/02 00:45:21;;;;;;;;;;;25.60;76.20;25.60;99685.00;;;;343293;28;83288;-86
2022/08/02 00:45:53;;;;;;;;;;;25.60;76.20;25.60;99686.00;;;;342631;28;91297;-87
2022/08/02 00:46:15;;;;;;;;;;;25.60;76.20;25.50;99679.00;;;;341879;28;83471;-86
2022/08/02 00:46:26;;;;;;;;;;;25.60;76.30;25.40;99674.00;;;;340040;28;91442;-87
2022/08/02 00:46:38;;;;;;;;;;;25.60;76.30;25.50;99688.00;;;;341482;28;84123;-86
2022/08/02 00:46:50;;;;;;;;;;;25.60;76.20;25.50;99687.00;;;;341457;28;89072;-86
2022/08/02 00:47:02;;;;;;;;;;;25.60;76.20;25.60;99676.00;;;;342529;28;83506;-86
2022/08/02 00:47:13;;;;;;;;;;;25.60;76.20;25.50;99683.00;;;;341452;28;90442;-86
2022/08/02 00:47:30;;;;;;;;;;;25.60;76.20;25.60;99683.00;;;;341856;28;83376;-86
2022/08/02 00:47:42;;;;;;;;;;;25.60;76.20;25.60;99682.00;;;;341527;28;89172;-86
2022/08/02 00:47:53;;;;;;;;;;;25.60;76.30;25.60;99682.00;;;;343361;28;83354;-86
2022/08/02 00:48:06;;;;;;;;;;;25.60;76.20;25.60;99691.00;;;;344145;28;91143;-86
2022/08/02 00:48:18;;;;;;;;;;;25.60;76.20;25.60;99679.00;;;;344609;28;83462;-86
2022/08/02 00:48:29;;;;;;;;;;;25.60;76.10;25.60;99679.00;;;;341506;28;88765;-86
2022/08/02 00:48:42;;;;;;;;;;;25.60;76.20;25.60;99681.00;;;;340622;28;83232;-87
2022/08/02 00:48:54;;;;;;;;;;;25.60;76.30;25.60;99680.00;;;;339960;28;89171;-86
2022/08/02 00:49:06;;;;;;;;;;;25.60;76.30;25.60;99680.00;;;;342684;28;83373;-86
2022/08/02 00:49:19;;;;;;;;;;;25.60;76.10;25.50;99679.00;;;;342941;28;88927;-86
2022/08/02 00:49:32;;;;;;;;;;;25.60;76.20;25.60;99683.00;;;;343245;28;83486;-86
2022/08/02 00:49:43;;;;;;;;;;;25.60;76.20;25.60;99680.00;;;;342889;28;89578;-86
2022/08/02 00:49:55;;;;;;;;;;;25.60;76.50;25.60;99686.00;;;;343266;28;82428;-86
2022/08/02 00:50:07;;;;;;;;;;;25.60;76.30;25.50;99680.00;;;;342786;28;92712;-86
2022/08/02 00:50:19;;;;;;;;;;;25.60;76.40;25.50;99680.00;;;;342001;28;82394;-86
2022/08/02 00:50:31;;;;;;;;;;;25.60;76.20;25.60;99678.00;;;;343225;28;87585;-86
2022/08/02 00:50:43;;;;;;;;;;;25.60;76.20;25.60;99680.00;;;;340929;28;82452;-86
2022/08/02 00:50:56;;;;;;;;;;;25.60;76.20;25.60;99685.00;;;;341584;28;89098;-86
2022/08/02 00:51:07;;;;;;;;;;;25.70;76.20;25.60;99683.00;;;;343288;28;83393;-86
2022/08/02 00:51:19;;;;;;;;;;;25.60;76.10;25.60;99678.00;;;;342982;28;89191;-87
2022/08/02 00:51:31;;;;;;;;;;;25.60;76.00;25.60;99670.00;;;;344573;28;83335;-86
2022/08/02 00:51:43;;;;;;;;;;;25.60;76.00;25.60;99680.00;;;;342951;28;89105;-86
2022/08/02 00:51:54;;;;;;;;;;;25.60;76.20;25.70;99677.00;;;;343303;28;83361;-86
2022/08/02 00:52:06;;;;;;;;;;;25.70;76.10;25.70;99676.00;;;;344180;28;89082;-86
2022/08/02 00:52:18;;;;;;;;;;;25.60;76.10;25.60;99681.00;;;;344307;28;83469;-86
2022/08/02 00:52:30;;;;;;;;;;;25.60;76.30;25.60;99684.00;;;;341530;28;88088;-86
2022/08/02 00:52:42;;;;;;;;;;;25.70;76.30;25.60;99681.00;;;;343004;28;83429;-86
2022/08/02 00:52:53;;;;;;;;;;;25.60;76.20;25.60;99679.00;;;;342806;28;90948;-86
2022/08/02 00:53:07;;;;;;;;;;;25.60;76.10;25.60;99681.00;;;;343280;28;83462;-86
2022/08/02 00:53:19;;;;;;;;;;;25.70;76.30;25.60;99683.00;;;;344376;28;87915;-87
2022/08/02 00:53:31;;;;;;;;;;;25.60;76.20;25.60;99676.00;;;;341572;28;82400;-86
2022/08/02 00:53:43;;;;;;;;;;;25.70;76.30;25.50;99684.00;;;;342908;28;89093;-86
2022/08/02 00:53:54;;;;;;;;;;;25.60;76.20;25.60;99680.00;;;;343338;28;82449;-87
2022/08/02 00:54:06;;;;;;;;;;;25.60;76.20;25.60;99681.00;;;;342661;28;90958;-86
2022/08/02 00:54:18;;;;;;;;;;;25.60;76.20;25.60;99684.00;;;;343429;28;83204;-86
2022/08/02 00:54:30;;;;;;;;;;;25.70;76.30;25.60;99680.00;;;;341479;28;90239;-87
2022/08/02 00:54:41;;;;;;;;;;;25.70;76.30;25.60;99677.00;;;;343273;28;83302;-87
2022/08/02 00:54:53;;;;;;;;;;;25.70;76.30;25.60;99685.00;;;;341561;28;89095;-86
2022/08/02 00:55:05;;;;;;;;;;;25.70;76.30;25.60;99683.00;;;;343210;28;84035;-87
2022/08/02 00:55:17;;;;;;;;;;;25.70;76.40;25.60;99674.00;;;;342814;28;92279;-86
2022/08/02 00:55:41;;;;;;;;;;;25.70;76.30;25.60;99688.00;;;;341897;28;83446;-87
2022/08/02 00:55:53;;;;;;;;;;;25.70;76.40;25.60;99682.00;;;;342978;28;89522;-87
2022/08/02 00:56:04;;;;;;;;;;;25.70;76.30;25.60;99681.00;;;;343218;28;83236;-86
2022/08/02 00:56:16;;;;;;;;;;;25.70;76.30;25.60;99681.00;;;;344166;28;90108;-86
2022/08/02 00:56:28;;;;;;;;;;;25.70;76.40;25.50;99681.00;;;;344477;28;83489;-87
2022/08/02 00:56:40;;;;;;;;;;;25.70;76.50;25.50;99686.00;;;;344211;28;91609;-86
2022/08/02 00:57:01;;;;;;;;;;;25.70;76.50;25.50;99686.00;;;;343172;28;83427;-86
2022/08/02 00:57:13;;;;;;;;;;;25.70;76.40;25.50;99687.00;;;;341398;28;92058;-86
2022/08/02 00:57:25;;;;;;;;;;;25.70;76.40;25.50;99677.00;;;;345420;28;82449;-87
2022/08/02 00:57:36;;;;;;;;;;;25.70;76.60;25.50;99686.00;;;;344002;28;92510;-86
2022/08/02 00:57:48;;;;;;;;;;;25.70;76.50;25.50;99677.00;;;;343277;28;83316;-87
2022/08/02 00:58:00;;;;;;;;;;;25.70;76.40;25.50;99676.00;;;;343387;28;91154;-86
2022/08/02 00:58:12;;;;;;;;;;;25.70;76.40;25.50;99684.00;;;;343163;28;83511;-86
2022/08/02 00:58:23;;;;;;;;;;;25.60;76.30;25.50;99678.00;;;;342827;28;89098;-87
2022/08/02 00:58:35;;;;;;;;;;;25.60;76.30;25.50;99679.00;;;;343359;28;82402;-86
2022/08/02 00:58:47;;;;;;;;;;;25.60;76.30;25.50;99677.00;;;;342872;28;88514;-86
2022/08/02 00:58:58;;;;;;;;;;;25.60;76.40;25.50;99686.00;;;;346028;28;83857;-87
2022/08/02 00:59:10;;;;;;;;;;;25.60;76.30;25.60;99678.00;;;;344211;28;90095;-87
2022/08/02 00:59:25;;;;;;;;;;;25.60;76.30;25.60;99680.00;;;;340594;28;83425;-86
2022/08/02 00:59:36;;;;;;;;;;;25.60;76.30;25.60;99676.00;;;;341389;28;90052;-86
2022/08/02 00:59:48;;;;;;;;;;;25.60;76.30;25.50;99679.00;;;;343327;28;83407;-86
2022/08/02 01:00:00;;;;;;;;;;;25.60;76.40;25.50;99679.00;;;;342852;28;90781;-87
2022/08/02 01:00:12;;;;;;;;;;;25.60;76.30;25.50;99672.00;;;;345910;28;83425;-87
2022/08/02 01:00:24;;;;;;;;;;;25.60;76.30;25.40;99672.00;;;;341483;28;89315;-87
2022/08/02 01:00:40;;;;;;;;;;;25.60;76.50;25.50;99680.00;;;;342920;28;83525;-87
2022/08/02 01:00:52;;;;;;;;;;;25.60;76.50;25.50;99675.00;;;;341471;28;91537;-86
2022/08/02 01:01:04;;;;;;;;;;;25.60;76.50;25.50;99677.00;;;;340224;28;83392;-87
2022/08/02 01:01:15;;;;;;;;;;;25.60;76.40;25.60;99678.00;;;;344311;28;89152;-87
2022/08/02 01:01:40;;;;;;;;;;;25.60;76.30;25.60;99676.00;;;;345867;28;83465;-85
2022/08/02 01:02:08;;;;;;;;;;;25.60;76.40;25.40;99682.00;;;;344101;28;89583;-86
2022/08/02 01:02:20;;;;;;;;;;;25.60;76.40;25.40;99672.00;;;;346007;28;82539;-87
2022/08/02 01:02:32;;;;;;;;;;;25.60;76.60;25.50;99677.00;;;;342785;28;92234;-87
2022/08/02 01:02:44;;;;;;;;;;;25.60;76.50;25.50;99678.00;;;;343123;28;83266;-86
2022/08/02 01:02:56;;;;;;;;;;;25.60;76.50;25.40;99671.00;;;;345636;28;89780;-86
2022/08/02 01:03:07;;;;;;;;;;;25.60;76.50;25.40;99677.00;;;;344409;28;83334;-86
2022/08/02 01:03:19;;;;;;;;;;;25.60;76.60;25.50;99675.00;;;;344066;28;90466;-86
2022/08/02 01:03:31;;;;;;;;;;;25.60;76.50;25.50;99672.00;;;;341794;28;83223;-86
2022/08/02 01:03:43;;;;;;;;;;;25.60;76.50;25.50;99677.00;;;;341482;28;92144;-86
2022/08/02 01:03:55;;;;;;;;;;;25.60;76.60;25.50;99672.00;;;;343305;28;83221;-87
2022/08/02 01:04:11;;;;;;;;;;;25.60;76.60;25.40;99677.00;;;;341491;28;88690;-86